sensor_id;sensor_type;location;lat;lon;timestamp;pressure;altitude;pressure_sealevel;temperature;humidity
49877;BME280;35771;48.978;9.294;2022-07-23T00:01:34;98879.13;;;24.07;61.95
49877;BME280;35771;48.978;9.294;2022-07-23T00:04:00;98867.75;;;24.03;61.13
49877;BME280;35771;48.978;9.294;2022-07-23T00:06:27;98852.50;;;23.95;61.73
49877;BME280;35771;48.978;9.294;2022-07-23T00:08:53;98873.84;;;24.05;60.15
49877;BME280;35771;48.978;9.294;2022-07-23T00:11:23;98873.84;;;24.05;59.82
49877;BME280;35771;48.978;9.294;2022-07-23T00:13:56;98882.16;;;24.10;59.96
49877;BME280;35771;48.978;9.294;2022-07-23T00:16:23;98875.22;;;24.13;60.05
49877;BME280;35771;48.978;9.294;2022-07-23T00:18:50;98859.69;;;24.07;59.26
49877;BME280;35771;48.978;9.294;2022-07-23T00:21:16;98848.84;;;24.05;59.06
49877;BME280;35771;48.978;9.294;2022-07-23T00:23:43;98858.56;;;24.08;59.57
49877;BME280;35771;48.978;9.294;2022-07-23T00:26:09;98862.75;;;24.00;59.25
49877;BME280;35771;48.978;9.294;2022-07-23T00:28:36;98862.47;;;24.01;59.00
49877;BME280;35771;48.978;9.294;2022-07-23T00:31:04;98868.59;;;23.93;59.58
49877;BME280;35771;48.978;9.294;2022-07-23T00:33:30;98867.19;;;23.91;57.20
49877;BME280;35771;48.978;9.294;2022-07-23T00:35:57;98859.97;;;24.05;56.68
49877;BME280;35771;48.978;9.294;2022-07-23T00:38:23;98846.91;;;24.00;56.65
49877;BME280;35771;48.978;9.294;2022-07-23T00:40:50;98836.13;;;23.94;56.19
49877;BME280;35771;48.978;9.294;2022-07-23T00:43:19;98837.47;;;24.07;56.75
49877;BME280;35771;48.978;9.294;2022-07-23T00:45:46;98846.94;;;23.95;57.60
49877;BME280;35771;48.978;9.294;2022-07-23T00:48:14;98847.50;;;23.87;57.80
49877;BME280;35771;48.978;9.294;2022-07-23T00:50:40;98851.09;;;23.77;58.53
49877;BME280;35771;48.978;9.294;2022-07-23T00:53:07;98841.38;;;23.75;58.59
49877;BME280;35771;48.978;9.294;2022-07-23T00:55:34;98827.78;;;23.68;58.33
49877;BME280;35771;48.978;9.294;2022-07-23T00:58:01;98825.84;;;23.68;57.82
49877;BME280;35771;48.978;9.294;2022-07-23T01:00:28;98823.91;;;23.69;58.21
49877;BME280;35771;48.978;9.294;2022-07-23T01:02:55;98840.56;;;23.64;58.23
49877;BME280;35771;48.978;9.294;2022-07-23T01:05:23;98844.19;;;23.59;58.93
49877;BME280;35771;48.978;9.294;2022-07-23T01:07:50;98854.72;;;23.57;58.63
49877;BME280;35771;48.978;9.294;2022-07-23T01:10:17;98832.28;;;23.38;58.14
49877;BME280;35771;48.978;9.294;2022-07-23T01:13:00;98854.16;;;23.50;57.81
49877;BME280;35771;48.978;9.294;2022-07-23T01:15:27;98859.44;;;23.62;59.01
49877;BME280;35771;48.978;9.294;2022-07-23T01:17:54;98847.50;;;23.41;60.28
49877;BME280;35771;48.978;9.294;2022-07-23T01:20:21;98823.38;;;23.26;61.17
49877;BME280;35771;48.978;9.294;2022-07-23T01:22:49;98847.78;;;23.24;60.53
49877;BME280;35771;48.978;9.294;2022-07-23T01:25:16;98843.38;;;23.38;60.03
49877;BME280;35771;48.978;9.294;2022-07-23T01:27:42;98821.72;;;23.25;61.42
49877;BME280;35771;48.978;9.294;2022-07-23T01:30:10;98812.22;;;23.00;63.05
49877;BME280;35771;48.978;9.294;2022-07-23T01:32:36;98842.16;;;22.98;64.89
49877;BME280;35771;48.978;9.294;2022-07-23T01:35:04;98836.34;;;22.94;65.52
49877;BME280;35771;48.978;9.294;2022-07-23T01:37:31;98813.88;;;22.75;64.89
49877;BME280;35771;48.978;9.294;2022-07-23T01:39:59;98823.03;;;22.81;63.69
49877;BME280;35771;48.978;9.294;2022-07-23T01:42:25;98797.44;;;22.53;66.23
49877;BME280;35771;48.978;9.294;2022-07-23T01:44:52;98780.78;;;22.43;67.11
49877;BME280;35771;48.978;9.294;2022-07-23T01:47:18;98804.91;;;22.37;68.21
49877;BME280;35771;48.978;9.294;2022-07-23T01:49:45;98815.38;;;22.35;67.27
49877;BME280;35771;48.978;9.294;2022-07-23T01:52:11;98807.41;;;22.44;65.75
49877;BME280;35771;48.978;9.294;2022-07-23T01:54:38;98816.78;;;22.43;65.80
49877;BME280;35771;48.978;9.294;2022-07-23T01:57:07;98835.69;;;22.51;67.65
49877;BME280;35771;48.978;9.294;2022-07-23T01:59:34;98819.56;;;22.38;68.06
49877;BME280;35771;48.978;9.294;2022-07-23T02:02:00;98812.84;;;22.28;68.21
49877;BME280;35771;48.978;9.294;2022-07-23T02:04:28;98822.25;;;22.22;69.09
49877;BME280;35771;48.978;9.294;2022-07-23T02:06:55;98836.72;;;22.35;68.69
49877;BME280;35771;48.978;9.294;2022-07-23T02:09:21;98829.97;;;22.20;68.85
49877;BME280;35771;48.978;9.294;2022-07-23T02:11:49;98842.66;;;22.11;70.35
49877;BME280;35771;48.978;9.294;2022-07-23T02:14:17;98849.34;;;22.15;72.22
49877;BME280;35771;48.978;9.294;2022-07-23T02:16:43;98855.59;;;21.95;72.99
49877;BME280;35771;48.978;9.294;2022-07-23T02:19:10;98864.97;;;21.89;73.36
49877;BME280;35771;48.978;9.294;2022-07-23T02:21:36;98845.97;;;21.65;72.52
49877;BME280;35771;48.978;9.294;2022-07-23T02:24:04;98847.13;;;21.69;71.33
49877;BME280;35771;48.978;9.294;2022-07-23T02:26:30;98819.88;;;21.51;73.35
49877;BME280;35771;48.978;9.294;2022-07-23T02:28:59;98842.56;;;21.53;71.45
49877;BME280;35771;48.978;9.294;2022-07-23T02:31:27;98831.66;;;21.41;71.66
49877;BME280;35771;48.978;9.294;2022-07-23T02:33:54;98858.72;;;21.39;71.75
49877;BME280;35771;48.978;9.294;2022-07-23T02:36:21;98894.34;;;21.63;70.56
49877;BME280;35771;48.978;9.294;2022-07-23T02:38:47;98877.16;;;21.55;69.84
49877;BME280;35771;48.978;9.294;2022-07-23T02:41:13;98884.72;;;21.65;70.18
49877;BME280;35771;48.978;9.294;2022-07-23T02:43:43;98918.03;;;21.86;69.93
49877;BME280;35771;48.978;9.294;2022-07-23T02:46:09;98887.81;;;21.74;70.29
49877;BME280;35771;48.978;9.294;2022-07-23T02:48:37;98898.63;;;21.76;70.97
49877;BME280;35771;48.978;9.294;2022-07-23T02:51:04;98885.19;;;21.57;71.04
49877;BME280;35771;48.978;9.294;2022-07-23T02:53:31;98903.34;;;21.80;70.95
49877;BME280;35771;48.978;9.294;2022-07-23T02:55:57;98890.72;;;21.57;72.46
49877;BME280;35771;48.978;9.294;2022-07-23T02:58:24;98927.81;;;21.61;73.33
49877;BME280;35771;48.978;9.294;2022-07-23T03:00:51;98903.28;;;21.43;73.38
49877;BME280;35771;48.978;9.294;2022-07-23T03:03:18;98907.56;;;21.28;73.62
49877;BME280;35771;48.978;9.294;2022-07-23T03:05:46;98902.13;;;21.38;74.31
49877;BME280;35771;48.978;9.294;2022-07-23T03:08:13;98900.72;;;21.36;75.05
49877;BME280;35771;48.978;9.294;2022-07-23T03:10:39;98902.53;;;21.20;76.89
49877;BME280;35771;48.978;9.294;2022-07-23T03:13:06;98917.94;;;21.16;77.59
49877;BME280;35771;48.978;9.294;2022-07-23T03:15:32;98921.44;;;21.06;77.66
49877;BME280;35771;48.978;9.294;2022-07-23T03:17:59;98919.91;;;21.15;76.85
49877;BME280;35771;48.978;9.294;2022-07-23T03:20:25;98940.47;;;21.30;75.90
49877;BME280;35771;48.978;9.294;2022-07-23T03:22:53;98910.16;;;21.08;74.16
49877;BME280;35771;48.978;9.294;2022-07-23T03:25:20;98930.34;;;21.40;73.80
49877;BME280;35771;48.978;9.294;2022-07-23T03:27:46;98918.22;;;21.14;74.34
49877;BME280;35771;48.978;9.294;2022-07-23T03:30:13;98936.56;;;21.26;73.89
49877;BME280;35771;48.978;9.294;2022-07-23T03:32:39;98944.19;;;21.40;73.50
49877;BME280;35771;48.978;9.294;2022-07-23T03:35:07;98933.13;;;21.40;73.66
49877;BME280;35771;48.978;9.294;2022-07-23T03:37:33;98930.53;;;21.29;74.71
49877;BME280;35771;48.978;9.294;2022-07-23T03:40:02;98914.00;;;21.07;74.98
49877;BME280;35771;48.978;9.294;2022-07-23T03:42:28;98941.47;;;21.18;75.17
49877;BME280;35771;48.978;9.294;2022-07-23T03:44:55;98922.31;;;21.12;75.14
49877;BME280;35771;48.978;9.294;2022-07-23T03:47:21;98910.72;;;21.10;75.49
49877;BME280;35771;48.978;9.294;2022-07-23T03:49:48;98915.06;;;21.06;75.67
49877;BME280;35771;48.978;9.294;2022-07-23T03:52:15;98918.66;;;21.06;76.34
49877;BME280;35771;48.978;9.294;2022-07-23T03:54:41;98951.69;;;21.18;76.74
49877;BME280;35771;48.978;9.294;2022-07-23T03:57:09;98952.72;;;21.12;76.42
49877;BME280;35771;48.978;9.294;2022-07-23T03:59:35;98948.66;;;21.19;76.69
49877;BME280;35771;48.978;9.294;2022-07-23T04:02:02;98923.06;;;21.02;77.36
49877;BME280;35771;48.978;9.294;2022-07-23T04:05:08;98948.13;;;21.22;77.25
49877;BME280;35771;48.978;9.294;2022-07-23T04:07:34;98944.28;;;21.24;77.86
49877;BME280;35771;48.978;9.294;2022-07-23T04:10:01;98943.41;;;21.18;83.71
49877;BME280;35771;48.978;9.294;2022-07-23T04:12:29;98955.34;;;21.24;82.12
49877;BME280;35771;48.978;9.294;2022-07-23T04:14:55;98927.84;;;21.12;81.13
49877;BME280;35771;48.978;9.294;2022-07-23T04:17:25;98945.03;;;21.14;81.01
49877;BME280;35771;48.978;9.294;2022-07-23T04:19:52;98951.50;;;21.25;81.69
49877;BME280;35771;48.978;9.294;2022-07-23T04:22:18;98930.06;;;21.10;83.77
49877;BME280;35771;48.978;9.294;2022-07-23T04:24:45;98954.41;;;21.13;84.31
49877;BME280;35771;48.978;9.294;2022-07-23T04:27:11;98954.94;;;21.10;84.59
49877;BME280;35771;48.978;9.294;2022-07-23T04:29:39;98934.91;;;20.97;83.23
49877;BME280;35771;48.978;9.294;2022-07-23T04:32:05;98951.13;;;21.16;84.56
49877;BME280;35771;48.978;9.294;2022-07-23T04:34:32;98958.94;;;21.24;85.84
49877;BME280;35771;48.978;9.294;2022-07-23T04:36:59;98947.00;;;21.18;85.54
49877;BME280;35771;48.978;9.294;2022-07-23T04:39:25;98950.31;;;21.15;82.77
49877;BME280;35771;48.978;9.294;2022-07-23T04:41:52;98941.53;;;21.24;82.10
49877;BME280;35771;48.978;9.294;2022-07-23T04:44:18;98940.69;;;21.23;79.81
49877;BME280;35771;48.978;9.294;2022-07-23T04:46:46;98968.88;;;21.47;78.60
49877;BME280;35771;48.978;9.294;2022-07-23T04:49:13;98968.94;;;21.52;80.24
49877;BME280;35771;48.978;9.294;2022-07-23T04:51:39;98961.66;;;21.46;82.90
49877;BME280;35771;48.978;9.294;2022-07-23T04:54:06;98965.44;;;21.35;84.72
49877;BME280;35771;48.978;9.294;2022-07-23T04:56:32;98942.88;;;21.21;85.32
49877;BME280;35771;48.978;9.294;2022-07-23T04:59:01;98956.03;;;21.36;85.66
49877;BME280;35771;48.978;9.294;2022-07-23T05:01:27;98962.66;;;21.35;82.12
49877;BME280;35771;48.978;9.294;2022-07-23T05:03:55;98989.03;;;21.70;80.74
49877;BME280;35771;48.978;9.294;2022-07-23T05:06:22;98966.56;;;21.66;79.96
49877;BME280;35771;48.978;9.294;2022-07-23T05:08:48;99000.06;;;21.97;80.23
49877;BME280;35771;48.978;9.294;2022-07-23T05:11:15;98997.66;;;22.06;79.02
49877;BME280;35771;48.978;9.294;2022-07-23T05:13:41;98985.50;;;22.12;78.21
49877;BME280;35771;48.978;9.294;2022-07-23T05:16:08;98983.47;;;21.97;80.58
49877;BME280;35771;48.978;9.294;2022-07-23T05:18:35;98985.19;;;22.08;82.60
49877;BME280;35771;48.978;9.294;2022-07-23T05:21:03;98964.38;;;22.33;80.36
49877;BME280;35771;48.978;9.294;2022-07-23T05:23:42;98984.72;;;22.59;77.10
49877;BME280;35771;48.978;9.294;2022-07-23T05:26:09;98976.59;;;22.90;74.29
49877;BME280;35771;48.978;9.294;2022-07-23T05:28:37;98973.50;;;22.82;73.64
49877;BME280;35771;48.978;9.294;2022-07-23T05:31:03;98993.63;;;23.14;73.68
49877;BME280;35771;48.978;9.294;2022-07-23T05:33:30;98976.16;;;23.14;72.00
49877;BME280;35771;48.978;9.294;2022-07-23T05:36:00;98980.59;;;23.25;70.33
49877;BME280;35771;48.978;9.294;2022-07-23T05:38:28;98981.00;;;23.80;66.91
49877;BME280;35771;48.978;9.294;2022-07-23T05:40:55;98987.38;;;23.76;67.86
49877;BME280;35771;48.978;9.294;2022-07-23T05:43:25;98995.38;;;23.41;73.19
49877;BME280;35771;48.978;9.294;2022-07-23T05:45:51;99014.44;;;23.27;79.85
49877;BME280;35771;48.978;9.294;2022-07-23T05:48:19;99032.63;;;22.97;77.94
49877;BME280;35771;48.978;9.294;2022-07-23T05:50:46;99019.19;;;22.79;80.61
49877;BME280;35771;48.978;9.294;2022-07-23T05:53:13;99028.59;;;22.73;77.48
49877;BME280;35771;48.978;9.294;2022-07-23T05:55:41;99021.88;;;22.58;80.81
49877;BME280;35771;48.978;9.294;2022-07-23T05:58:07;99023.22;;;22.56;82.88
49877;BME280;35771;48.978;9.294;2022-07-23T06:00:34;99038.31;;;22.33;85.84
49877;BME280;35771;48.978;9.294;2022-07-23T06:03:01;99057.81;;;22.48;90.73
49877;BME280;35771;48.978;9.294;2022-07-23T06:05:27;99064.47;;;22.20;90.08
49877;BME280;35771;48.978;9.294;2022-07-23T06:07:54;99069.09;;;22.09;92.04
49877;BME280;35771;48.978;9.294;2022-07-23T06:10:20;99062.13;;;22.06;94.87
49877;BME280;35771;48.978;9.294;2022-07-23T06:12:48;99067.38;;;22.03;99.18
49877;BME280;35771;48.978;9.294;2022-07-23T06:15:15;99065.19;;;21.78;96.77
49877;BME280;35771;48.978;9.294;2022-07-23T06:17:42;99039.53;;;21.60;100.00
49877;BME280;35771;48.978;9.294;2022-07-23T06:20:09;99030.75;;;21.41;90.36
49877;BME280;35771;48.978;9.294;2022-07-23T06:22:36;99045.56;;;21.52;86.84
49877;BME280;35771;48.978;9.294;2022-07-23T06:25:03;99020.56;;;21.47;94.33
49877;BME280;35771;48.978;9.294;2022-07-23T06:27:30;99036.84;;;21.43;84.51
49877;BME280;35771;48.978;9.294;2022-07-23T06:29:58;99006.28;;;21.50;98.58
49877;BME280;35771;48.978;9.294;2022-07-23T06:32:24;98993.53;;;21.27;97.98
49877;BME280;35771;48.978;9.294;2022-07-23T06:34:51;98996.72;;;21.40;94.64
49877;BME280;35771;48.978;9.294;2022-07-23T06:37:17;99012.63;;;21.50;93.70
49877;BME280;35771;48.978;9.294;2022-07-23T06:39:44;99027.38;;;21.61;88.85
49877;BME280;35771;48.978;9.294;2022-07-23T06:42:10;99040.41;;;21.61;90.08
49877;BME280;35771;48.978;9.294;2022-07-23T06:44:37;99029.63;;;21.64;89.85
49877;BME280;35771;48.978;9.294;2022-07-23T06:47:05;99062.03;;;21.96;91.10
49877;BME280;35771;48.978;9.294;2022-07-23T06:49:32;99055.66;;;21.96;89.12
49877;BME280;35771;48.978;9.294;2022-07-23T06:51:58;99033.84;;;21.72;86.47
49877;BME280;35771;48.978;9.294;2022-07-23T06:54:25;99031.19;;;21.55;92.39
49877;BME280;35771;48.978;9.294;2022-07-23T06:56:52;99043.94;;;21.56;92.63
49877;BME280;35771;48.978;9.294;2022-07-23T06:59:18;99053.38;;;21.60;90.61
49877;BME280;35771;48.978;9.294;2022-07-23T07:01:45;99098.09;;;21.74;92.42
49877;BME280;35771;48.978;9.294;2022-07-23T07:04:13;99102.06;;;21.61;93.39
49877;BME280;35771;48.978;9.294;2022-07-23T07:06:40;99127.84;;;21.45;98.45
49877;BME280;35771;48.978;9.294;2022-07-23T07:09:07;99129.72;;;21.00;97.79
49877;BME280;35771;48.978;9.294;2022-07-23T07:11:33;99132.09;;;20.91;99.69
49877;BME280;35771;48.978;9.294;2022-07-23T07:14:00;99136.97;;;20.67;100.00
49877;BME280;35771;48.978;9.294;2022-07-23T07:16:27;99145.84;;;20.69;100.00
49877;BME280;35771;48.978;9.294;2022-07-23T07:19:04;99126.72;;;20.33;100.00
49877;BME280;35771;48.978;9.294;2022-07-23T07:24:32;99137.78;;;20.50;100.00
49877;BME280;35771;48.978;9.294;2022-07-23T07:26:58;99101.81;;;19.83;100.00
49877;BME280;35771;48.978;9.294;2022-07-23T07:29:25;99124.94;;;20.10;100.00
49877;BME280;35771;48.978;9.294;2022-07-23T07:31:52;99084.44;;;19.99;100.00
49877;BME280;35771;48.978;9.294;2022-07-23T07:34:18;99105.06;;;20.08;100.00
49877;BME280;35771;48.978;9.294;2022-07-23T07:36:45;99091.06;;;19.98;100.00
49877;BME280;35771;48.978;9.294;2022-07-23T07:39:11;99048.41;;;19.60;100.00
49877;BME280;35771;48.978;9.294;2022-07-23T07:41:41;99067.91;;;19.70;100.00
49877;BME280;35771;48.978;9.294;2022-07-23T07:44:07;99063.09;;;19.77;100.00
49877;BME280;35771;48.978;9.294;2022-07-23T07:46:34;99065.88;;;19.94;100.00
49877;BME280;35771;48.978;9.294;2022-07-23T07:49:00;99085.31;;;20.16;100.00
49877;BME280;35771;48.978;9.294;2022-07-23T07:51:27;99077.28;;;20.32;100.00
49877;BME280;35771;48.978;9.294;2022-07-23T07:53:54;99079.06;;;20.55;100.00
49877;BME280;35771;48.978;9.294;2022-07-23T07:56:20;99084.81;;;20.71;100.00
49877;BME280;35771;48.978;9.294;2022-07-23T07:58:48;99078.22;;;20.72;100.00
49877;BME280;35771;48.978;9.294;2022-07-23T08:01:15;99077.94;;;20.90;100.00
49877;BME280;35771;48.978;9.294;2022-07-23T08:03:42;99086.19;;;21.29;100.00
49877;BME280;35771;48.978;9.294;2022-07-23T08:06:09;99109.03;;;21.64;100.00
49877;BME280;35771;48.978;9.294;2022-07-23T08:08:35;99100.66;;;21.59;100.00
49877;BME280;35771;48.978;9.294;2022-07-23T08:11:02;99112.56;;;21.59;100.00
49877;BME280;35771;48.978;9.294;2022-07-23T08:13:28;99098.47;;;21.61;100.00
49877;BME280;35771;48.978;9.294;2022-07-23T08:15:56;99101.53;;;21.42;100.00
49877;BME280;35771;48.978;9.294;2022-07-23T08:18:23;99111.25;;;21.45;100.00
49877;BME280;35771;48.978;9.294;2022-07-23T08:20:50;99112.81;;;21.35;100.00
49877;BME280;35771;48.978;9.294;2022-07-23T08:23:16;99116.50;;;21.24;100.00
49877;BME280;35771;48.978;9.294;2022-07-23T08:25:45;99103.47;;;21.19;100.00
49877;BME280;35771;48.978;9.294;2022-07-23T08:28:14;99122.75;;;21.14;100.00
49877;BME280;35771;48.978;9.294;2022-07-23T08:30:42;99114.66;;;20.91;100.00
49877;BME280;35771;48.978;9.294;2022-07-23T08:33:11;99124.56;;;20.86;100.00
49877;BME280;35771;48.978;9.294;2022-07-23T08:35:40;99115.13;;;20.82;100.00
49877;BME280;35771;48.978;9.294;2022-07-23T08:38:10;99128.22;;;20.92;100.00
49877;BME280;35771;48.978;9.294;2022-07-23T08:40:39;99115.78;;;20.90;100.00
49877;BME280;35771;48.978;9.294;2022-07-23T08:43:07;99141.38;;;21.02;100.00
49877;BME280;35771;48.978;9.294;2022-07-23T08:45:36;99119.84;;;21.04;100.00
49877;BME280;35771;48.978;9.294;2022-07-23T08:48:03;99129.72;;;21.17;100.00
49877;BME280;35771;48.978;9.294;2022-07-23T08:50:34;99142.97;;;21.37;100.00
49877;BME280;35771;48.978;9.294;2022-07-23T08:53:02;99136.25;;;21.33;100.00
49877;BME280;35771;48.978;9.294;2022-07-23T08:55:28;99168.94;;;21.53;100.00
49877;BME280;35771;48.978;9.294;2022-07-23T08:57:55;99156.88;;;21.64;100.00
49877;BME280;35771;48.978;9.294;2022-07-23T09:00:22;99125.53;;;21.36;100.00
49877;BME280;35771;48.978;9.294;2022-07-23T09:02:49;99112.94;;;21.46;100.00
49877;BME280;35771;48.978;9.294;2022-07-23T09:05:16;99123.66;;;21.86;100.00
49877;BME280;35771;48.978;9.294;2022-07-23T09:08:07;99134.66;;;22.08;100.00
49877;BME280;35771;48.978;9.294;2022-07-23T09:10:45;99136.25;;;22.54;96.43
49877;BME280;35771;48.978;9.294;2022-07-23T09:13:26;99121.53;;;22.53;93.49
49877;BME280;35771;48.978;9.294;2022-07-23T09:15:54;99123.91;;;22.72;90.32
49877;BME280;35771;48.978;9.294;2022-07-23T09:18:28;99125.72;;;22.98;92.07
49877;BME280;35771;48.978;9.294;2022-07-23T09:21:05;99123.88;;;23.09;88.34
49877;BME280;35771;48.978;9.294;2022-07-23T09:23:38;99133.56;;;23.07;86.03
49877;BME280;35771;48.978;9.294;2022-07-23T09:26:17;99128.72;;;23.29;85.50
49877;BME280;35771;48.978;9.294;2022-07-23T09:28:51;99125.28;;;23.70;82.09
49877;BME280;35771;48.978;9.294;2022-07-23T09:31:18;99119.75;;;23.70;81.35
49877;BME280;35771;48.978;9.294;2022-07-23T09:33:44;99125.63;;;23.89;79.71
49877;BME280;35771;48.978;9.294;2022-07-23T09:36:11;99122.28;;;23.82;80.60
49877;BME280;35771;48.978;9.294;2022-07-23T09:38:47;99117.66;;;24.24;78.40
49877;BME280;35771;48.978;9.294;2022-07-23T09:41:15;99134.63;;;24.68;84.51
49877;BME280;35771;48.978;9.294;2022-07-23T09:43:41;99144.06;;;24.47;75.13
49877;BME280;35771;48.978;9.294;2022-07-23T09:46:19;99141.31;;;24.62;70.22
49877;BME280;35771;48.978;9.294;2022-07-23T09:48:46;99133.53;;;24.69;69.55
49877;BME280;35771;48.978;9.294;2022-07-23T09:51:12;99136.81;;;24.97;72.02
49877;BME280;35771;48.978;9.294;2022-07-23T09:53:40;99112.59;;;25.34;69.29
49877;BME280;35771;48.978;9.294;2022-07-23T09:56:08;99131.88;;;25.75;65.03
49877;BME280;35771;48.978;9.294;2022-07-23T09:58:39;99119.31;;;25.83;67.18
49877;BME280;35771;48.978;9.294;2022-07-23T10:01:11;99098.88;;;25.42;64.54
49877;BME280;35771;48.978;9.294;2022-07-23T10:03:39;99127.41;;;25.74;66.53
49877;BME280;35771;48.978;9.294;2022-07-23T10:06:07;99107.53;;;25.46;62.99
49877;BME280;35771;48.978;9.294;2022-07-23T10:08:34;99122.75;;;25.59;66.47
49877;BME280;35771;48.978;9.294;2022-07-23T10:11:01;99108.25;;;25.62;65.98
49877;BME280;35771;48.978;9.294;2022-07-23T10:13:30;99141.28;;;25.84;63.91
49877;BME280;35771;48.978;9.294;2022-07-23T10:16:26;99132.16;;;25.68;62.68
49877;BME280;35771;48.978;9.294;2022-07-23T10:18:52;99121.72;;;26.00;64.29
49877;BME280;35771;48.978;9.294;2022-07-23T10:21:25;99120.63;;;26.01;60.55
49877;BME280;35771;48.978;9.294;2022-07-23T10:24:04;99114.53;;;26.33;60.09
49877;BME280;35771;48.978;9.294;2022-07-23T10:26:41;99107.78;;;26.05;61.93
49877;BME280;35771;48.978;9.294;2022-07-23T10:29:22;99108.84;;;26.48;61.81
49877;BME280;35771;48.978;9.294;2022-07-23T10:31:56;99120.41;;;26.71;60.89
49877;BME280;35771;48.978;9.294;2022-07-23T10:34:30;99125.97;;;26.66;61.87
49877;BME280;35771;48.978;9.294;2022-07-23T10:37:07;99122.63;;;26.69;63.29
49877;BME280;35771;48.978;9.294;2022-07-23T10:39:38;99129.50;;;26.82;62.41
49877;BME280;35771;48.978;9.294;2022-07-23T10:42:09;99129.91;;;26.65;59.40
49877;BME280;35771;48.978;9.294;2022-07-23T10:44:48;99127.97;;;26.95;59.75
49877;BME280;35771;48.978;9.294;2022-07-23T10:47:25;99117.31;;;27.26;60.09
49877;BME280;35771;48.978;9.294;2022-07-23T10:50:19;99130.81;;;27.43;56.75
49877;BME280;35771;48.978;9.294;2022-07-23T10:55:52;99099.44;;;27.51;54.25
49877;BME280;35771;48.978;9.294;2022-07-23T10:58:21;99102.63;;;27.64;54.50
49877;BME280;35771;48.978;9.294;2022-07-23T11:00:49;99123.28;;;27.87;52.87
49877;BME280;35771;48.978;9.294;2022-07-23T11:03:33;99102.38;;;27.84;53.31
49877;BME280;35771;48.978;9.294;2022-07-23T11:06:02;99101.69;;;27.73;54.16
49877;BME280;35771;48.978;9.294;2022-07-23T11:08:29;99124.09;;;27.87;51.16
49877;BME280;35771;48.978;9.294;2022-07-23T11:11:09;99119.06;;;27.46;50.40
49877;BME280;35771;48.978;9.294;2022-07-23T11:13:41;99099.41;;;27.32;50.33
49877;BME280;35771;48.978;9.294;2022-07-23T11:16:23;99103.19;;;27.66;49.67
49877;BME280;35771;48.978;9.294;2022-07-23T11:19:02;99117.72;;;28.06;47.27
49877;BME280;35771;48.978;9.294;2022-07-23T11:21:43;99118.78;;;28.29;46.51
49877;BME280;35771;48.978;9.294;2022-07-23T11:24:11;99100.94;;;28.44;46.27
49877;BME280;35771;48.978;9.294;2022-07-23T11:26:47;99118.75;;;28.81;47.67
49877;BME280;35771;48.978;9.294;2022-07-23T11:29:43;99115.56;;;28.55;46.90
49877;BME280;35771;48.978;9.294;2022-07-23T11:32:35;99088.50;;;28.17;49.13
49877;BME280;35771;48.978;9.294;2022-07-23T11:35:18;99106.00;;;28.75;48.55
49877;BME280;35771;48.978;9.294;2022-07-23T11:37:46;99095.19;;;29.15;46.83
49877;BME280;35771;48.978;9.294;2022-07-23T11:40:14;99098.22;;;29.33;45.55
49877;BME280;35771;48.978;9.294;2022-07-23T11:42:52;99095.25;;;28.82;46.92
49877;BME280;35771;48.978;9.294;2022-07-23T11:45:19;99085.63;;;28.55;47.80
49877;BME280;35771;48.978;9.294;2022-07-23T11:47:46;99083.88;;;28.92;48.59
49877;BME280;35771;48.978;9.294;2022-07-23T11:50:13;99094.75;;;28.94;46.69
49877;BME280;35771;48.978;9.294;2022-07-23T11:52:40;99087.03;;;28.72;48.57
49877;BME280;35771;48.978;9.294;2022-07-23T11:55:08;99097.94;;;28.73;48.22
49877;BME280;35771;48.978;9.294;2022-07-23T11:57:37;99098.38;;;28.94;47.72
49877;BME280;35771;48.978;9.294;2022-07-23T12:00:06;99094.00;;;28.74;46.05
49877;BME280;35771;48.978;9.294;2022-07-23T12:02:34;99076.69;;;28.39;45.89
49877;BME280;35771;48.978;9.294;2022-07-23T12:05:02;99072.44;;;28.42;47.87
49877;BME280;35771;48.978;9.294;2022-07-23T12:07:31;99077.09;;;28.66;46.10
49877;BME280;35771;48.978;9.294;2022-07-23T12:09:59;99063.56;;;29.01;45.34
49877;BME280;35771;48.978;9.294;2022-07-23T12:12:26;99071.22;;;28.81;44.79
49877;BME280;35771;48.978;9.294;2022-07-23T12:14:54;99072.72;;;28.59;45.22
49877;BME280;35771;48.978;9.294;2022-07-23T12:17:27;99087.06;;;28.86;44.24
49877;BME280;35771;48.978;9.294;2022-07-23T12:19:55;99058.38;;;28.80;44.10
49877;BME280;35771;48.978;9.294;2022-07-23T12:22:25;99073.19;;;28.94;43.64
49877;BME280;35771;48.978;9.294;2022-07-23T12:24:53;99062.25;;;29.26;43.17
49877;BME280;35771;48.978;9.294;2022-07-23T12:27:20;99060.72;;;29.70;43.11
49877;BME280;35771;48.978;9.294;2022-07-23T12:29:47;99061.66;;;29.79;43.50
49877;BME280;35771;48.978;9.294;2022-07-23T12:32:21;99052.09;;;29.80;42.26
49877;BME280;35771;48.978;9.294;2022-07-23T12:34:49;99075.44;;;29.90;42.05
49877;BME280;35771;48.978;9.294;2022-07-23T12:37:28;99070.31;;;29.69;41.55
49877;BME280;35771;48.978;9.294;2022-07-23T12:39:55;99051.91;;;29.77;41.99
49877;BME280;35771;48.978;9.294;2022-07-23T12:42:22;99068.03;;;30.08;42.34
49877;BME280;35771;48.978;9.294;2022-07-23T12:45:07;99054.41;;;30.15;40.85
49877;BME280;35771;48.978;9.294;2022-07-23T12:48:04;99074.91;;;29.23;41.54
49877;BME280;35771;48.978;9.294;2022-07-23T12:50:43;99079.88;;;29.40;41.92
49877;BME280;35771;48.978;9.294;2022-07-23T12:53:14;99079.88;;;29.40;42.95
49877;BME280;35771;48.978;9.294;2022-07-23T12:55:42;99059.03;;;29.33;42.08
49877;BME280;35771;48.978;9.294;2022-07-23T12:58:11;99077.69;;;29.51;40.86
49877;BME280;35771;48.978;9.294;2022-07-23T13:01:03;99078.25;;;29.76;40.79
49877;BME280;35771;48.978;9.294;2022-07-23T13:03:32;99060.94;;;29.74;41.23
49877;BME280;35771;48.978;9.294;2022-07-23T13:05:59;99084.81;;;29.85;39.75
49877;BME280;35771;48.978;9.294;2022-07-23T13:08:30;99082.91;;;29.94;40.13
49877;BME280;35771;48.978;9.294;2022-07-23T13:10:57;99090.34;;;29.99;40.51
49877;BME280;35771;48.978;9.294;2022-07-23T13:13:28;99064.25;;;30.12;40.39